createdAt,value
2019-04-14T00:08:17.754Z,4.80
2019-04-14T00:18:20.822Z,4.80
2019-04-14T00:28:22.889Z,4.80
2019-04-14T00:38:25.991Z,4.70
2019-04-14T00:48:28.021Z,4.70
2019-04-14T00:58:30.113Z,4.80
2019-04-14T01:08:32.090Z,4.60
2019-04-14T01:18:34.141Z,4.40
2019-04-14T01:28:36.146Z,4.30
2019-04-14T01:38:38.516Z,4.20
2019-04-14T01:48:41.052Z,4.20
2019-04-14T01:58:43.205Z,4.20
2019-04-14T02:08:45.886Z,4.10
2019-04-14T02:18:50.647Z,4.10
2019-04-14T02:28:52.833Z,4.10
2019-04-14T02:39:24.105Z,4.00
2019-04-14T02:49:44.069Z,4.00
2019-04-14T02:59:45.155Z,4.00
2019-04-14T03:09:42.221Z,4.00
2019-04-14T03:20:00.463Z,4.10
2019-04-14T03:30:11.685Z,4.10
2019-04-14T03:39:51.228Z,4.00
2019-04-14T03:50:00.948Z,3.90
2019-04-14T03:59:39.128Z,4.00
2019-04-14T04:09:41.323Z,4.00
2019-04-14T04:19:43.342Z,4.10
2019-04-14T04:29:46.277Z,4.20
2019-04-14T04:39:49.529Z,4.40
2019-04-14T04:49:53.414Z,4.50
2019-04-14T04:59:56.148Z,4.60
2019-04-14T05:09:59.920Z,4.50
2019-04-14T05:20:03.228Z,4.70
2019-04-14T05:30:04.782Z,4.90
2019-04-14T05:40:07.989Z,5.20
2019-04-14T05:50:10.196Z,5.30
2019-04-14T06:00:12.529Z,5.40
2019-04-14T06:10:14.459Z,5.90
2019-04-14T06:20:16.475Z,6.20
2019-04-14T06:30:18.443Z,6.10
2019-04-14T06:40:20.381Z,6.20
2019-04-14T06:50:22.338Z,6.30
2019-04-14T07:00:24.423Z,6.40
2019-04-14T07:10:26.431Z,6.70
2019-04-14T07:20:28.386Z,7.00
2019-04-14T07:30:30.342Z,7.10
2019-04-14T07:40:32.323Z,7.70
2019-04-14T07:50:34.434Z,7.40
2019-04-14T08:00:36.499Z,7.20
2019-04-14T08:10:38.486Z,7.20
2019-04-14T08:20:40.529Z,7.30
2019-04-14T08:30:42.570Z,7.50
2019-04-14T08:40:44.426Z,7.60
2019-04-14T08:50:46.391Z,7.80
2019-04-14T09:00:48.450Z,7.90
2019-04-14T09:10:50.543Z,8.30
2019-04-14T09:20:52.914Z,8.50
2019-04-14T09:30:54.963Z,8.80
2019-04-14T09:40:56.918Z,9.20
2019-04-14T09:51:04.580Z,9.50
2019-04-14T10:01:02.710Z,9.80
2019-04-14T10:11:04.659Z,10.00
2019-04-14T10:21:16.744Z,10.40
2019-04-14T10:31:10.448Z,10.60
2019-04-14T10:41:12.415Z,11.20
2019-04-14T10:51:14.399Z,11.40
2019-04-14T11:01:16.355Z,11.70
2019-04-14T11:11:18.391Z,12.10
2019-04-14T11:21:20.352Z,12.50
2019-04-14T11:31:22.394Z,12.80
2019-04-14T11:41:24.516Z,13.40
2019-04-14T11:51:26.802Z,13.90
2019-04-14T12:01:28.935Z,23.90
2019-04-14T12:11:31.722Z,31.10
2019-04-14T12:21:33.679Z,35.70
2019-04-14T12:31:37.378Z,38.00
2019-04-14T12:41:39.968Z,36.80
2019-04-14T12:51:42.032Z,40.70
2019-04-14T13:01:45.238Z,42.20
2019-04-14T13:11:47.237Z,42.90
2019-04-14T13:21:49.216Z,39.20
2019-04-14T13:31:51.357Z,34.60
2019-04-14T13:41:53.305Z,42.20
2019-04-14T13:51:55.265Z,40.50
2019-04-14T14:01:57.382Z,37.20
2019-04-14T14:11:59.450Z,36.00
2019-04-14T14:22:01.367Z,31.40
2019-04-14T14:32:03.819Z,25.40
2019-04-14T14:42:05.747Z,23.00
2019-04-14T14:52:07.186Z,23.00
2019-04-14T15:02:09.315Z,29.70
2019-04-14T15:12:11.356Z,24.60
2019-04-14T15:22:13.346Z,30.60
2019-04-14T15:32:15.347Z,34.80
2019-04-14T15:42:17.347Z,23.00
2019-04-14T15:52:19.387Z,18.90
2019-04-14T16:02:21.399Z,16.70
2019-04-14T16:12:23.619Z,15.80
2019-04-14T16:22:25.669Z,15.40
2019-04-14T16:32:27.803Z,14.70
2019-04-14T16:42:29.768Z,14.60
2019-04-14T16:52:31.765Z,14.00
2019-04-14T17:02:33.692Z,13.50
2019-04-14T17:12:35.688Z,12.90
2019-04-14T17:22:37.649Z,12.80
2019-04-14T17:32:39.688Z,12.60
2019-04-14T17:42:41.659Z,12.10
2019-04-14T17:52:43.686Z,11.90
2019-04-14T18:02:45.641Z,11.70
2019-04-14T18:12:47.692Z,11.40
2019-04-14T18:22:49.679Z,11.10
2019-04-14T18:32:51.690Z,11.00
2019-04-14T18:42:53.668Z,10.80
2019-04-14T18:52:55.631Z,10.60
2019-04-14T19:02:57.571Z,10.50
2019-04-14T19:12:59.627Z,10.40
2019-04-14T19:23:01.590Z,10.30
2019-04-14T19:33:03.868Z,10.10
2019-04-14T19:43:05.924Z,10.10
2019-04-14T19:53:07.922Z,10.00
2019-04-14T20:03:09.922Z,10.00
2019-04-14T20:13:12.044Z,10.00
2019-04-14T20:23:14.095Z,9.90
2019-04-14T20:33:16.274Z,9.80
2019-04-14T20:43:18.332Z,9.70
2019-04-14T20:53:20.310Z,9.60
2019-04-14T21:03:22.299Z,9.60
2019-04-14T21:13:24.429Z,9.50
2019-04-14T21:23:26.396Z,9.30
2019-04-14T21:33:28.445Z,9.10
2019-04-14T21:43:30.395Z,8.80
2019-04-14T21:53:32.359Z,8.60
2019-04-14T22:03:35.010Z,8.40
2019-04-14T22:13:37.130Z,8.30
2019-04-14T22:23:39.346Z,8.20
2019-04-14T22:33:41.333Z,8.20
2019-04-14T22:43:43.308Z,8.00
2019-04-14T22:53:45.403Z,7.90
2019-04-14T23:03:47.864Z,7.80
2019-04-14T23:13:49.885Z,7.70
2019-04-14T23:23:51.847Z,7.70
2019-04-14T23:33:53.900Z,7.90
2019-04-14T23:43:55.879Z,8.10
2019-04-14T23:53:58.043Z,8.10
